createdAt,value
2019-03-12T06:10:55.854Z,36.40
2019-03-12T06:13:27.529Z,36.60
2019-03-12T06:15:59.560Z,36.70
2019-03-12T06:18:31.838Z,36.80
2019-03-12T06:21:03.706Z,37.00
2019-03-12T06:23:35.314Z,37.00
2019-03-12T06:26:07.408Z,37.10
2019-03-12T06:28:41.932Z,37.10
2019-03-12T06:31:17.569Z,37.00
2019-03-12T06:33:48.200Z,37.00
2019-03-12T06:36:21.572Z,37.00
2019-03-12T06:38:55.943Z,37.10
2019-03-12T06:41:29.767Z,37.20
2019-03-12T06:44:03.025Z,37.20
2019-03-12T06:46:56.931Z,37.30
2019-03-12T06:49:32.151Z,37.20
2019-03-12T06:52:05.971Z,37.30
2019-03-12T06:54:42.155Z,37.30
2019-03-12T06:57:15.667Z,37.40
2019-03-12T06:59:48.670Z,37.50
2019-03-12T07:02:24.912Z,37.60
2019-03-12T07:04:58.205Z,37.50
2019-03-12T07:07:31.923Z,37.60
2019-03-12T07:10:05.407Z,37.50
2019-03-12T07:12:38.163Z,37.70
2019-03-12T07:15:13.055Z,37.70
2019-03-12T07:17:49.736Z,37.80
2019-03-12T07:20:22.852Z,37.80
2019-03-12T07:22:56.239Z,37.90
2019-03-12T07:25:29.473Z,38.00
2019-03-12T07:28:04.241Z,38.10
2019-03-12T07:30:37.377Z,38.10
2019-03-12T07:33:10.890Z,38.20
2019-03-12T07:35:43.811Z,38.30
2019-03-12T07:38:16.179Z,38.30
2019-03-12T07:40:49.121Z,38.30
2019-03-12T07:43:21.161Z,38.20
2019-03-12T07:45:54.174Z,38.10
2019-03-12T07:48:32.422Z,38.10
2019-03-12T07:51:04.022Z,38.10
2019-03-12T07:53:35.904Z,38.10
2019-03-12T07:56:12.325Z,38.00
2019-03-12T07:58:45.303Z,37.90
2019-03-12T08:01:37.716Z,37.90
2019-03-12T08:04:11.757Z,37.90
2019-03-12T08:06:44.880Z,38.00
2019-03-12T08:09:17.745Z,38.10
2019-03-12T08:11:51.371Z,38.20
2019-03-12T08:14:26.894Z,38.20
2019-03-12T08:16:59.955Z,38.30
2019-03-12T08:19:32.956Z,38.30
2019-03-12T08:22:06.051Z,38.30
2019-03-12T08:24:39.052Z,38.30
2019-03-12T08:27:12.651Z,38.30
2019-03-12T08:29:45.931Z,38.40
2019-03-12T08:32:20.061Z,38.40
2019-03-12T08:34:53.447Z,38.40
2019-03-12T08:37:27.141Z,38.40
2019-03-12T08:40:00.435Z,38.40
2019-03-12T08:42:33.935Z,38.40
2019-03-12T08:45:11.110Z,38.40
2019-03-12T08:47:43.573Z,38.40
2019-03-12T08:50:19.194Z,38.40
2019-03-12T08:52:52.054Z,38.40
2019-03-12T08:55:26.777Z,38.50
2019-03-12T08:58:09.291Z,38.60
2019-03-12T09:00:42.495Z,38.60
2019-03-12T09:03:15.872Z,38.70
2019-03-12T09:05:49.187Z,38.70
2019-03-12T09:08:22.789Z,38.70
2019-03-12T09:10:56.077Z,38.70
2019-03-12T09:13:29.187Z,38.70
2019-03-12T09:16:03.066Z,38.60
2019-03-12T09:18:36.603Z,38.60
2019-03-12T09:21:09.839Z,38.60
2019-03-12T09:23:43.204Z,38.60
2019-03-12T09:26:16.247Z,38.60
2019-03-12T09:28:49.758Z,38.50
2019-03-12T09:31:22.785Z,38.50
2019-03-12T09:33:56.465Z,38.40
2019-03-12T09:36:29.636Z,38.40
2019-03-12T09:39:03.158Z,38.40
2019-03-12T09:41:38.457Z,38.30
2019-03-12T09:44:12.043Z,38.30
2019-03-12T09:46:45.078Z,38.20
2019-03-12T09:49:16.953Z,38.20
2019-03-12T09:51:52.935Z,38.10
2019-03-12T09:54:26.769Z,38.10
2019-03-12T09:56:59.829Z,38.10
2019-03-12T09:59:33.455Z,38.10
2019-03-12T10:02:06.908Z,38.10
2019-03-12T10:04:42.477Z,38.10
2019-03-12T10:07:15.559Z,38.00
2019-03-12T10:09:49.367Z,38.00
2019-03-12T10:12:24.995Z,37.90
2019-03-12T10:14:58.497Z,37.90
2019-03-12T10:17:33.039Z,37.70
2019-03-12T10:20:07.145Z,37.60
2019-03-12T10:22:40.271Z,37.50
2019-03-12T10:25:13.337Z,37.40
2019-03-12T10:27:46.378Z,37.30
2019-03-12T10:30:20.129Z,37.30
2019-03-12T10:32:53.292Z,37.20
2019-03-12T10:35:26.690Z,37.20
2019-03-12T10:38:03.920Z,37.20
2019-03-12T10:40:37.818Z,37.10
2019-03-12T10:43:11.210Z,37.00
2019-03-12T10:45:44.521Z,36.90
2019-03-12T10:48:17.806Z,36.80
2019-03-12T10:50:50.533Z,36.70
2019-03-12T10:53:22.337Z,36.70
2019-03-12T10:55:54.616Z,36.60
2019-03-12T10:58:26.453Z,36.50
2019-03-12T11:00:58.346Z,36.40
2019-03-12T11:03:31.044Z,36.20
2019-03-12T11:06:03.293Z,36.10
2019-03-12T11:08:35.214Z,36.00
2019-03-12T11:11:11.120Z,35.80
2019-03-12T11:13:42.882Z,35.70
2019-03-12T11:16:15.107Z,35.50
2019-03-12T11:18:50.552Z,35.40
2019-03-12T11:21:22.672Z,35.30
2019-03-12T11:23:54.933Z,35.20
2019-03-12T11:26:28.735Z,35.10
2019-03-12T11:29:00.634Z,34.90
2019-03-12T11:31:32.574Z,34.80
2019-03-12T11:34:04.649Z,34.70
2019-03-12T11:36:36.588Z,34.60
2019-03-12T11:39:08.970Z,34.50
2019-03-12T11:41:41.020Z,34.40
2019-03-12T11:44:12.985Z,34.30
2019-03-12T11:46:46.111Z,34.10
2019-03-12T11:49:18.272Z,34.10
2019-03-12T11:51:50.258Z,34.00
2019-03-12T11:54:22.223Z,33.90
2019-03-12T11:56:54.265Z,33.80
2019-03-12T11:59:26.169Z,33.70
2019-03-12T12:01:57.997Z,33.70
2019-03-12T12:04:29.946Z,33.60
2019-03-12T12:07:01.853Z,33.50
2019-03-12T12:09:33.605Z,33.50
2019-03-12T12:12:05.816Z,33.40
2019-03-12T12:14:37.625Z,33.40
2019-03-12T12:17:09.288Z,33.40
2019-03-12T12:19:42.091Z,33.30
2019-03-12T12:22:13.944Z,33.30
2019-03-12T12:24:45.597Z,33.20
2019-03-12T12:27:18.148Z,33.20
2019-03-12T12:29:50.122Z,33.20
2019-03-12T12:32:22.264Z,33.20
2019-03-12T12:34:54.278Z,33.10
2019-03-12T12:37:26.131Z,33.10
2019-03-12T12:39:57.913Z,33.10
2019-03-12T12:42:29.807Z,33.00
2019-03-12T12:45:01.510Z,33.00
2019-03-12T12:47:33.357Z,32.90
2019-03-12T12:50:07.280Z,32.90
2019-03-12T12:52:39.068Z,32.90
2019-03-12T12:55:14.645Z,32.80
2019-03-12T12:57:46.717Z,32.80
2019-03-12T13:00:22.447Z,32.80
2019-03-12T13:02:54.368Z,32.80
2019-03-12T13:05:27.782Z,32.70
2019-03-12T13:07:59.538Z,32.60
2019-03-12T13:10:33.058Z,32.60
2019-03-12T13:13:05.078Z,32.50
2019-03-12T13:15:36.927Z,32.50
2019-03-12T13:18:18.215Z,32.50
2019-03-12T13:20:50.623Z,32.40
2019-03-12T13:23:22.178Z,32.40
2019-03-12T13:25:54.293Z,32.30
2019-03-12T13:28:45.174Z,32.30
2019-03-12T13:31:17.175Z,32.30
2019-03-12T13:33:48.999Z,32.20
2019-03-12T13:36:20.984Z,32.20
2019-03-12T13:38:53.110Z,32.20
2019-03-12T13:41:25.009Z,32.10
2019-03-12T13:43:56.873Z,32.10
2019-03-12T13:46:29.297Z,32.00
2019-03-12T13:49:01.192Z,31.90
2019-03-12T13:51:32.949Z,31.90
2019-03-12T13:54:05.690Z,31.80
2019-03-12T13:56:37.397Z,31.80
2019-03-12T13:59:09.514Z,31.80
2019-03-12T14:01:41.702Z,31.70
2019-03-12T14:04:13.738Z,31.70
2019-03-12T14:06:45.754Z,31.70
2019-03-12T14:09:32.916Z,31.70
2019-03-12T14:12:04.688Z,31.60
2019-03-12T14:14:36.780Z,31.60
2019-03-12T14:17:08.747Z,31.60
2019-03-12T14:19:40.475Z,31.50
2019-03-12T14:22:13.414Z,31.50
2019-03-12T14:24:45.401Z,31.50
2019-03-12T14:27:17.358Z,31.40
2019-03-12T14:29:52.536Z,31.40
2019-03-12T14:32:25.563Z,31.40
2019-03-12T14:34:57.949Z,31.30
2019-03-12T14:37:35.914Z,31.30
2019-03-12T14:40:08.082Z,31.20
2019-03-12T14:42:40.306Z,31.20
2019-03-12T14:45:13.927Z,31.20
2019-03-12T14:47:48.933Z,31.10
2019-03-12T14:50:21.595Z,31.10
2019-03-12T14:52:57.171Z,31.10
2019-03-12T14:55:30.216Z,31.00
2019-03-12T14:58:01.861Z,31.00
2019-03-12T15:00:33.960Z,30.90
2019-03-12T15:03:26.140Z,30.90
2019-03-12T15:06:17.337Z,30.80
2019-03-12T15:08:49.578Z,30.70
2019-03-12T15:11:21.315Z,30.60
2019-03-12T15:13:53.304Z,30.60
2019-03-12T15:16:25.272Z,30.50
2019-03-12T15:18:57.174Z,30.40
2019-03-12T15:21:29.076Z,30.30
2019-03-12T15:24:02.378Z,30.20
2019-03-12T15:26:34.443Z,30.20
2019-03-12T15:29:06.097Z,30.10
2019-03-12T15:31:38.440Z,30.00
2019-03-12T15:34:10.245Z,30.00
2019-03-12T15:36:45.343Z,29.90
2019-03-12T15:39:17.967Z,29.90
2019-03-12T15:41:49.920Z,29.80
2019-03-12T15:44:24.064Z,29.70
2019-03-12T15:46:57.772Z,29.70
2019-03-12T15:49:29.640Z,29.60
2019-03-12T15:52:01.637Z,29.60
2019-03-12T15:54:33.435Z,29.60
2019-03-12T15:57:05.658Z,29.50
2019-03-12T15:59:40.618Z,29.50
2019-03-12T16:02:12.372Z,29.40
2019-03-12T16:04:47.748Z,29.40
2019-03-12T16:07:20.277Z,29.40
2019-03-12T16:10:04.541Z,29.30
2019-03-12T16:12:36.257Z,29.30
2019-03-12T16:15:11.304Z,29.30
2019-03-12T16:17:43.021Z,29.40
2019-03-12T16:20:18.005Z,29.40
2019-03-12T16:22:50.008Z,29.40
2019-03-12T16:25:22.610Z,29.50
2019-03-12T16:27:54.268Z,29.50
2019-03-12T16:30:25.917Z,29.50
2019-03-12T16:32:58.793Z,29.60
2019-03-12T16:35:30.755Z,29.60
2019-03-12T16:38:03.495Z,29.60
2019-03-12T16:40:35.474Z,29.70
2019-03-12T16:43:07.570Z,29.60
2019-03-12T16:45:39.615Z,29.70
2019-03-12T16:48:11.348Z,29.70
2019-03-12T16:50:43.467Z,29.60
2019-03-12T16:53:15.554Z,29.60
2019-03-12T16:55:47.296Z,29.60
2019-03-12T16:58:19.881Z,29.60
2019-03-12T17:00:52.085Z,29.50
2019-03-12T17:03:34.011Z,29.50
2019-03-12T17:06:12.433Z,29.40
2019-03-12T17:08:44.340Z,29.40
2019-03-12T17:11:17.366Z,29.30
2019-03-12T17:13:49.542Z,29.20
2019-03-12T17:16:21.695Z,29.20
2019-03-12T17:18:53.414Z,29.20
2019-03-12T17:21:25.323Z,29.10
2019-03-12T17:24:06.358Z,29.10
2019-03-12T17:26:41.104Z,29.10
2019-03-12T17:29:13.062Z,29.10
2019-03-12T17:31:48.841Z,29.10
2019-03-12T17:34:34.944Z,29.00
2019-03-12T17:36:55.131Z,28.90
2019-03-12T17:39:26.928Z,28.80
2019-03-12T17:42:02.017Z,28.60
2019-03-12T17:44:34.168Z,28.40
2019-03-12T17:47:06.268Z,28.20
2019-03-12T17:49:38.002Z,28.00
2019-03-12T17:52:09.866Z,27.80
2019-03-12T17:54:42.129Z,27.70
2019-03-12T17:57:13.973Z,27.50
2019-03-12T18:00:06.066Z,27.40
2019-03-12T18:02:42.672Z,27.30
2019-03-12T18:05:13.985Z,27.20
2019-03-12T18:07:46.104Z,27.20
2019-03-12T18:10:20.040Z,27.10
2019-03-12T18:12:51.826Z,27.00
2019-03-12T18:15:24.019Z,27.00
2019-03-12T18:17:56.350Z,26.90
2019-03-12T18:20:27.976Z,26.80
2019-03-12T18:23:00.142Z,26.60
2019-03-12T18:25:35.067Z,26.60
2019-03-12T18:28:09.149Z,26.50
2019-03-12T18:30:40.971Z,26.40
2019-03-12T18:33:12.844Z,26.30
2019-03-12T18:35:44.453Z,26.30
2019-03-12T18:38:16.599Z,26.20
2019-03-12T18:40:48.518Z,26.20
2019-03-12T18:43:20.278Z,26.10
2019-03-12T18:45:52.633Z,26.10
2019-03-12T18:48:26.668Z,26.10
2019-03-12T18:50:58.524Z,26.00
2019-03-12T18:53:30.273Z,26.00
2019-03-12T18:56:03.971Z,26.00
2019-03-12T18:58:35.967Z,26.00
2019-03-12T19:01:08.488Z,26.00
2019-03-12T19:03:40.305Z,26.00
2019-03-12T19:06:12.754Z,26.00
2019-03-12T19:08:48.095Z,26.00
2019-03-12T19:11:18.025Z,26.00
2019-03-12T19:13:49.884Z,25.80
2019-03-12T19:16:21.801Z,25.80
2019-03-12T19:18:53.974Z,25.70
2019-03-12T19:21:27.509Z,25.60
2019-03-12T19:23:59.531Z,25.60
2019-03-12T19:26:31.435Z,25.50
2019-03-12T19:29:04.193Z,25.40
2019-03-12T19:31:37.400Z,25.40
2019-03-12T19:34:11.412Z,25.40
2019-03-12T19:36:43.204Z,25.40
2019-03-12T19:39:16.562Z,25.40
2019-03-12T19:41:48.345Z,25.40
2019-03-12T19:44:20.400Z,25.40
2019-03-12T19:46:52.474Z,25.40
2019-03-12T19:49:24.148Z,25.40
2019-03-12T19:51:55.893Z,25.30
2019-03-12T19:54:27.855Z,25.30
2019-03-12T19:56:59.740Z,25.30
2019-03-12T19:59:31.864Z,25.20
2019-03-12T20:02:15.632Z,25.20
2019-03-12T20:04:47.183Z,25.10
2019-03-12T20:07:11.670Z,25.10
2019-03-12T20:09:46.178Z,25.00
2019-03-12T20:12:22.359Z,24.90
2019-03-12T20:15:15.980Z,24.90
2019-03-12T20:17:52.493Z,24.80
2019-03-12T20:20:28.258Z,24.80
2019-03-12T20:23:04.218Z,24.70
2019-03-12T20:25:39.746Z,24.70
2019-03-12T20:28:15.741Z,24.70
2019-03-12T20:30:52.542Z,24.70
2019-03-12T20:33:28.464Z,24.60
2019-03-12T20:36:04.239Z,24.60
2019-03-12T20:38:40.070Z,24.60
2019-03-12T20:41:15.647Z,24.60
2019-03-12T20:43:51.471Z,24.60
2019-03-12T20:46:27.320Z,24.60
2019-03-12T20:49:10.859Z,24.60
2019-03-12T20:51:40.735Z,24.50
2019-03-12T20:54:16.736Z,24.50
2019-03-12T20:56:52.509Z,24.50
2019-03-12T20:59:28.671Z,24.50
2019-03-12T21:02:04.082Z,24.40
2019-03-12T21:04:39.857Z,24.40
2019-03-12T21:07:15.291Z,24.40
2019-03-12T21:09:51.154Z,24.30
2019-03-12T21:12:26.720Z,24.30
2019-03-12T21:15:02.491Z,24.30
2019-03-12T21:17:38.906Z,24.20
2019-03-12T21:20:15.915Z,24.20
2019-03-12T21:22:52.189Z,24.20
2019-03-12T21:25:28.412Z,24.20
2019-03-12T21:28:04.106Z,24.20
2019-03-12T21:30:37.109Z,24.20
2019-03-12T21:33:15.101Z,24.20
2019-03-12T21:35:43.454Z,24.20
2019-03-12T21:38:15.333Z,24.20
2019-03-12T21:40:47.315Z,24.20
2019-03-12T21:43:19.395Z,24.20
2019-03-12T21:45:52.082Z,24.20
2019-03-12T21:48:23.689Z,24.20
2019-03-12T21:50:55.686Z,24.10
2019-03-12T21:53:27.479Z,24.10
2019-03-12T21:55:59.369Z,24.10
2019-03-12T21:58:31.760Z,24.00
2019-03-12T22:01:04.453Z,24.00
2019-03-12T22:03:38.979Z,24.00
2019-03-12T22:06:10.721Z,23.90
2019-03-12T22:08:42.569Z,23.90
2019-03-12T22:11:14.565Z,23.90
2019-03-12T22:13:47.024Z,23.90
2019-03-12T22:16:18.925Z,23.80
2019-03-12T22:18:52.072Z,23.80
2019-03-12T22:21:25.129Z,23.70
2019-03-12T22:23:58.367Z,23.70
2019-03-12T22:26:29.999Z,23.70
2019-03-12T22:29:01.865Z,23.60
2019-03-12T22:31:33.991Z,23.50
2019-03-12T22:34:06.159Z,23.50
2019-03-12T22:36:37.813Z,23.40
2019-03-12T22:39:09.967Z,23.40
2019-03-12T22:41:41.809Z,23.40
2019-03-12T22:44:15.419Z,23.40
2019-03-12T22:46:47.268Z,23.30
2019-03-12T22:49:18.927Z,23.30
2019-03-12T22:51:50.955Z,23.20
2019-03-12T22:54:22.966Z,23.30
2019-03-12T22:56:54.879Z,23.30
2019-03-12T22:59:26.754Z,23.30
2019-03-12T23:01:58.731Z,23.30
2019-03-12T23:04:31.081Z,23.30
2019-03-12T23:07:02.804Z,23.40
2019-03-12T23:09:34.435Z,23.40
2019-03-12T23:12:06.616Z,23.40
2019-03-12T23:14:38.330Z,23.30
2019-03-12T23:17:10.468Z,23.30
2019-03-12T23:19:42.545Z,23.30
2019-03-12T23:22:14.777Z,23.20
2019-03-12T23:24:46.843Z,23.30
2019-03-12T23:27:18.732Z,23.20
2019-03-12T23:29:50.776Z,23.20
2019-03-12T23:32:22.736Z,23.20
2019-03-12T23:34:54.824Z,23.10
2019-03-12T23:37:27.760Z,23.00
2019-03-12T23:39:59.560Z,22.90
2019-03-12T23:42:31.344Z,22.90
2019-03-12T23:45:03.229Z,22.90
2019-03-12T23:47:34.891Z,22.80
2019-03-12T23:50:09.053Z,22.80
2019-03-12T23:52:40.808Z,22.80
2019-03-12T23:55:15.436Z,22.70
2019-03-12T23:57:49.192Z,22.70
